Time;durP1;ratioP1;P1;durP2;ratioP2;P2;SDS_P1;SDS_P2;PMS_P1;PMS_P2;Temp;Humidity;BMP_temperature;BMP_pressure;BME280_temperature;BME280_humidity;BME280_pressure;Samples;Min_cycle;Max_cycle;Signal;HPM_P1;HPM_P2
2022/09/06 00:00:40;;;;;;;4.53;3.27;;;;;;;19.99;100.00;101476.06;5299013;28;20101;-67
2022/09/06 00:03:11;;;;;;;10.00;4.53;;;;;;;19.95;100.00;101513.84;5297513;28;20070;-67
2022/09/06 00:05:43;;;;;;;6.60;3.73;;;;;;;19.96;100.00;101547.41;5300128;28;20063;-68
2022/09/06 00:08:14;;;;;;;5.37;4.13;;;;;;;19.82;100.00;101543.66;5280883;28;20028;-67
2022/09/06 00:10:46;;;;;;;5.43;4.13;;;;;;;19.83;100.00;101550.63;5296761;28;20496;-68
2022/09/06 00:13:17;;;;;;;5.73;3.97;;;;;;;19.78;100.00;101566.28;5278813;28;20059;-68
2022/09/06 00:15:48;;;;;;;5.57;4.03;;;;;;;19.82;100.00;101587.03;5296641;28;20038;-67
2022/09/06 00:18:19;;;;;;;7.13;4.50;;;;;;;19.78;100.00;101595.53;5298396;28;20309;-67
2022/09/06 00:20:51;;;;;;;5.97;4.10;;;;;;;19.83;100.00;101607.31;5299622;28;20040;-68
2022/09/06 00:23:22;;;;;;;5.00;4.50;;;;;;;19.77;100.00;101623.09;5297535;28;20534;-67
2022/09/06 00:26:01;;;;;;;7.23;4.73;;;;;;;19.89;100.00;101611.94;5299114;28;20031;-66
2022/09/06 00:28:33;;;;;;;6.45;4.38;;;;;;;19.68;100.00;101607.19;5296850;28;20032;-66
2022/09/06 00:31:12;;;;;;;6.70;4.83;;;;;;;19.88;100.00;101626.22;5296423;28;20527;-66
2022/09/06 00:33:43;;;;;;;5.43;3.92;;;;;;;19.73;100.00;101619.97;5299325;28;20504;-67
2022/09/06 00:36:15;;;;;;;5.30;3.97;;;;;;;19.74;100.00;101604.88;5294911;28;20020;-66
2022/09/06 00:38:47;;;;;;;4.65;4.13;;;;;;;19.74;100.00;101607.53;5299096;28;20024;-67
2022/09/06 00:41:19;;;;;;;4.97;4.33;;;;;;;19.74;100.00;101597.72;5298518;28;20025;-67
2022/09/06 00:43:50;;;;;;;6.33;4.43;;;;;;;19.72;100.00;101598.88;5279327;28;20032;-68
2022/09/06 00:46:25;;;;;;;7.07;4.87;;;;;;;19.75;100.00;101579.94;5296509;28;20024;-67
2022/09/06 00:49:11;;;;;;;5.95;4.55;;;;;;;19.88;100.00;101583.66;5298903;28;20093;-67
2022/09/06 00:51:43;;;;;;;5.35;4.78;;;;;;;19.69;100.00;101579.59;5296153;28;20035;-67
2022/09/06 00:54:15;;;;;;;4.90;4.35;;;;;;;19.70;100.00;101575.13;5298719;28;20020;-68
2022/09/06 00:56:47;;;;;;;7.17;4.43;;;;;;;19.68;100.00;101562.00;5298950;28;20604;-67
2022/09/06 00:59:18;;;;;;;8.85;4.97;;;;;;;19.67;100.00;101563.00;5295499;28;20353;-67
2022/09/06 01:01:49;;;;;;;5.43;3.83;;;;;;;19.69;100.00;101550.34;5296044;28;20035;-67
2022/09/06 01:04:21;;;;;;;5.50;4.50;;;;;;;19.71;100.00;101538.75;5298695;28;20423;-68
2022/09/06 01:07:26;;;;;;;7.27;4.53;;;;;;;19.92;100.00;101546.91;5296411;28;20384;-68
2022/09/06 01:10:10;;;;;;;6.07;4.55;;;;;;;19.95;100.00;101548.41;5298579;28;20031;-67
2022/09/06 01:13:12;;;;;;;5.82;4.70;;;;;;;20.04;100.00;101539.38;5298744;28;20127;-68
2022/09/06 01:15:50;;;;;;;4.57;4.07;;;;;;;19.88;100.00;101527.81;5294844;28;20146;-67
2022/09/06 01:18:39;;;;;;;4.88;4.13;;;;;;;19.96;100.00;101515.50;5295119;28;20093;-67
2022/09/06 01:21:36;;;;;;;6.50;4.80;;;;;;;19.73;100.00;101504.81;5297454;28;20059;-68
2022/09/06 01:24:40;;;;;;;5.68;4.38;;;;;;;19.77;100.00;101477.69;5264305;28;20092;-67
2022/09/06 01:27:38;;;;;;;7.10;4.82;;;;;;;19.92;100.00;101448.53;5298518;28;20071;-67
2022/09/06 01:30:12;;;;;;;6.13;5.00;;;;;;;19.65;100.00;101434.75;5294401;28;20583;-67
2022/09/06 01:33:03;;;;;;;6.82;4.60;;;;;;;19.71;100.00;101424.41;5293082;28;20409;-67
2022/09/06 01:35:43;;;;;;;5.57;4.70;;;;;;;19.65;100.00;101413.47;5293995;28;20077;-67
2022/09/06 01:38:15;;;;;;;7.68;4.32;;;;;;;19.53;100.00;101409.53;5295089;28;20038;-67
2022/09/06 01:40:46;;;;;;;6.63;4.57;;;;;;;19.59;100.00;101397.38;5294904;28;20072;-67
2022/09/06 01:43:24;;;;;;;5.73;5.10;;;;;;;19.52;100.00;101372.50;5297695;28;20051;-67
2022/09/06 01:45:59;;;;;;;6.30;5.22;;;;;;;19.45;100.00;101375.84;5298460;28;20020;-67
2022/09/06 01:48:46;;;;;;;8.05;4.70;;;;;;;19.62;100.00;101359.84;5292667;28;20489;-67
2022/09/06 01:51:43;;;;;;;5.93;4.40;;;;;;;19.57;100.00;101354.19;5294983;28;20139;-67
2022/09/06 01:54:50;;;;;;;5.25;4.75;;;;;;;19.43;100.00;101353.09;5296915;28;20099;-67
2022/09/06 01:57:27;;;;;;;5.47;4.72;;;;;;;19.31;100.00;101350.03;5296052;28;20028;-67
2022/09/06 02:00:10;;;;;;;5.50;4.65;;;;;;;19.35;100.00;101361.13;5294449;28;20047;-67
2022/09/06 02:02:57;;;;;;;;;;;;;;;19.92;100.00;101379.38;5297539;28;20039;-67
2022/09/06 02:05:36;;;;;;;7.75;4.75;;;;;;;19.43;100.00;101433.69;5293523;28;20210;-67
2022/09/06 02:08:13;;;;;;;5.05;4.57;;;;;;;19.36;100.00;101411.47;5295346;28;20056;-67
2022/09/06 02:10:51;;;;;;;5.05;4.47;;;;;;;19.33;100.00;101393.22;5297308;28;20027;-67
2022/09/06 02:13:28;;;;;;;5.50;4.63;;;;;;;19.35;100.00;101404.47;5288849;28;20024;-67
2022/09/06 02:16:02;;;;;;;5.97;4.68;;;;;;;19.40;100.00;101396.81;5297474;28;20099;-67
2022/09/06 02:18:41;;;;;;;5.35;4.50;;;;;;;19.42;100.00;101386.84;5297461;28;20024;-67
2022/09/06 02:21:15;;;;;;;4.93;4.30;;;;;;;19.34;100.00;101384.22;5294826;28;20031;-67
2022/09/06 02:23:50;;;;;;;6.68;4.65;;;;;;;19.28;100.00;101387.59;5277731;28;20445;-67
2022/09/06 02:26:26;;;;;;;6.40;4.38;;;;;;;19.37;100.00;101397.16;5299541;28;20424;-67
2022/09/06 02:28:57;;;;;;;6.15;4.13;;;;;;;19.27;100.00;101398.38;5301022;28;20028;-67
2022/09/06 02:31:34;;;;;;;5.30;4.53;;;;;;;19.38;100.00;101390.03;5299207;28;20062;-67
2022/09/06 02:34:06;;;;;;;5.65;4.28;;;;;;;19.29;100.00;101391.91;5301948;28;20031;-67
2022/09/06 02:36:37;;;;;;;5.15;4.57;;;;;;;19.23;100.00;101381.97;5280114;28;20032;-67
2022/09/06 02:39:10;;;;;;;5.55;4.20;;;;;;;19.20;100.00;101377.00;5299084;28;20032;-67
2022/09/06 02:41:44;;;;;;;6.57;4.28;;;;;;;19.15;100.00;101380.16;5299085;28;20032;-67
2022/09/06 02:44:15;;;;;;;6.22;5.47;;;;;;;19.08;100.00;101373.88;5300635;28;20110;-67
2022/09/06 02:46:46;;;;;;;7.07;4.50;;;;;;;19.13;100.00;101387.50;5300538;28;20111;-67
2022/09/06 02:49:18;;;;;;;6.85;4.57;;;;;;;19.07;100.00;101387.34;5300909;28;20101;-67
2022/09/06 02:51:49;;;;;;;5.10;4.60;;;;;;;19.06;100.00;101383.88;5299496;28;20462;-67
2022/09/06 02:54:21;;;;;;;5.20;4.53;;;;;;;19.06;100.00;101388.38;5298579;28;20028;-67
2022/09/06 02:56:52;;;;;;;5.18;4.60;;;;;;;19.06;100.00;101389.19;5301022;28;20016;-67
2022/09/06 02:59:23;;;;;;;5.18;4.68;;;;;;;19.02;100.00;101384.41;5300831;28;20056;-67
2022/09/06 03:01:54;;;;;;;5.10;4.68;;;;;;;19.04;100.00;101385.03;5299220;28;20028;-67
2022/09/06 03:04:26;;;;;;;5.65;4.85;;;;;;;19.06;100.00;101391.03;5300594;28;20508;-67
2022/09/06 03:06:57;;;;;;;7.50;5.38;;;;;;;19.09;100.00;101396.81;5299433;28;20366;-67
2022/09/06 03:09:29;;;;;;;5.73;4.97;;;;;;;19.10;100.00;101392.31;5299522;28;20020;-67
2022/09/06 03:12:00;;;;;;;6.50;4.77;;;;;;;19.08;100.00;101395.13;5297644;28;20034;-67
2022/09/06 03:14:31;;;;;;;5.20;4.70;;;;;;;19.09;100.00;101388.84;5299181;28;20074;-67
2022/09/06 03:17:03;;;;;;;6.13;5.53;;;;;;;19.06;100.00;101383.06;5300666;28;20490;-67
2022/09/06 03:19:34;;;;;;;7.57;5.47;;;;;;;19.09;100.00;101391.50;5300272;28;20469;-67
2022/09/06 03:22:05;;;;;;;6.57;4.78;;;;;;;19.08;100.00;101389.81;5299336;28;20024;-67
2022/09/06 03:24:37;;;;;;;6.47;4.83;;;;;;;19.09;100.00;101403.94;5300652;28;20024;-67
2022/09/06 03:27:08;;;;;;;5.13;4.63;;;;;;;19.07;100.00;101392.66;5279206;28;20039;-67
2022/09/06 03:29:39;;;;;;;8.37;5.30;;;;;;;19.04;100.00;101404.44;5300032;28;20461;-67
2022/09/06 03:32:10;;;;;;;7.10;4.90;;;;;;;19.03;100.00;101401.97;5298777;28;20622;-67
2022/09/06 03:34:41;;;;;;;5.78;4.65;;;;;;;19.00;100.00;101402.31;5300196;28;20032;-68
2022/09/06 03:37:13;;;;;;;5.03;4.37;;;;;;;18.94;100.00;101390.53;5294795;28;20027;-67
2022/09/06 03:39:44;;;;;;;4.82;4.43;;;;;;;18.94;100.00;101391.41;5300340;28;20648;-67
2022/09/06 03:42:15;;;;;;;7.03;5.00;;;;;;;18.89;100.00;101388.41;5295729;28;20389;-67
2022/09/06 03:44:46;;;;;;;5.85;5.10;;;;;;;18.90;100.00;101384.78;5299715;28;20388;-67
2022/09/06 03:47:19;;;;;;;6.07;4.63;;;;;;;18.82;100.00;101382.13;5299961;28;20047;-67
2022/09/06 03:49:50;;;;;;;5.20;4.70;;;;;;;18.81;100.00;101396.41;5300329;28;20494;-67
2022/09/06 03:52:21;;;;;;;5.60;4.97;;;;;;;18.75;100.00;101396.25;5297525;28;20032;-67
2022/09/06 03:54:52;;;;;;;5.73;4.90;;;;;;;18.76;100.00;101382.00;5299837;28;20362;-67
2022/09/06 03:57:24;;;;;;;6.07;5.00;;;;;;;18.69;100.00;101387.94;5300017;28;20024;-67
2022/09/06 03:59:55;;;;;;;6.18;5.03;;;;;;;18.67;100.00;101397.06;5292901;28;20052;-67
2022/09/06 04:02:26;;;;;;;5.90;4.80;;;;;;;18.68;100.00;101393.44;5292289;28;20062;-67
2022/09/06 04:04:57;;;;;;;5.53;4.90;;;;;;;18.64;100.00;101398.25;5299101;28;20032;-67
2022/09/06 04:07:29;;;;;;;6.95;5.32;;;;;;;18.58;100.00;101403.41;5279036;28;20483;-67
2022/09/06 04:10:00;;;;;;;5.80;5.20;;;;;;;18.60;100.00;101404.03;5299024;28;20039;-67
2022/09/06 04:12:33;;;;;;;6.15;5.55;;;;;;;18.54;100.00;101413.53;5299599;28;20038;-67
2022/09/06 04:15:05;;;;;;;5.45;4.95;;;;;;;18.50;100.00;101417.50;5295935;28;20035;-67
2022/09/06 04:17:36;;;;;;;6.97;5.67;;;;;;;18.52;100.00;101418.16;5299073;28;20027;-67
2022/09/06 04:20:09;;;;;;;6.13;5.63;;;;;;;18.53;100.00;101419.84;5299125;28;20031;-67
2022/09/06 04:22:40;;;;;;;7.15;6.05;;;;;;;18.46;100.00;101424.16;5297588;28;20503;-67
2022/09/06 04:25:12;;;;;;;6.35;5.75;;;;;;;18.50;100.00;101429.94;5298304;28;20064;-67
2022/09/06 04:27:43;;;;;;;7.77;5.60;;;;;;;18.47;100.00;101425.78;5299053;28;20493;-67
2022/09/06 04:30:15;;;;;;;6.82;6.03;;;;;;;18.38;100.00;101425.00;5296938;28;20027;-67
2022/09/06 04:32:46;;;;;;;6.68;6.07;;;;;;;18.38;100.00;101416.19;5296098;28;20031;-67
2022/09/06 04:35:17;;;;;;;7.13;6.30;;;;;;;18.36;100.00;101419.00;5296652;28;20469;-67
2022/09/06 04:37:49;;;;;;;7.07;6.43;;;;;;;18.36;100.00;101424.31;5299254;28;20034;-67
2022/09/06 04:40:20;;;;;;;8.10;6.57;;;;;;;18.29;100.00;101425.97;5298813;28;20059;-67
2022/09/06 04:42:51;;;;;;;7.00;6.07;;;;;;;18.30;100.00;101418.88;5295925;28;20036;-67
2022/09/06 04:45:23;;;;;;;8.18;6.30;;;;;;;18.27;100.00;101424.50;5298857;28;20028;-67
2022/09/06 04:47:54;;;;;;;7.68;5.90;;;;;;;18.21;100.00;101418.84;5295727;28;20048;-67
2022/09/06 04:50:26;;;;;;;6.70;6.10;;;;;;;18.20;100.00;101421.69;5298384;28;20489;-67
2022/09/06 04:52:57;;;;;;;6.97;6.23;;;;;;;18.18;100.00;101426.31;5297008;28;20435;-67
2022/09/06 04:55:30;;;;;;;9.40;6.15;;;;;;;18.17;100.00;101424.66;5299285;28;20039;-67
2022/09/06 04:58:02;;;;;;;7.03;6.43;;;;;;;18.15;100.00;101431.97;5298130;28;20020;-67
2022/09/06 05:00:34;;;;;;;6.33;5.73;;;;;;;18.07;100.00;101429.28;5295266;28;20128;-67
2022/09/06 05:03:05;;;;;;;7.20;6.50;;;;;;;18.04;100.00;101424.34;5294621;28;20281;-67
2022/09/06 05:05:36;;;;;;;7.05;6.45;;;;;;;18.07;100.00;101416.88;5298546;28;20397;-67
2022/09/06 05:08:08;;;;;;;7.35;6.65;;;;;;;18.03;100.00;101410.22;5297317;28;20500;-67
2022/09/06 05:10:39;;;;;;;7.88;6.35;;;;;;;18.04;100.00;101409.25;5297444;28;20511;-67
2022/09/06 05:13:10;;;;;;;8.02;6.03;;;;;;;18.03;100.00;101410.22;5296632;28;20061;-67
2022/09/06 05:15:42;;;;;;;8.05;7.15;;;;;;;17.99;100.00;101415.06;5279865;28;20024;-67
2022/09/06 05:18:13;;;;;;;8.13;6.35;;;;;;;17.95;100.00;101413.69;5298554;28;20107;-66
2022/09/06 05:20:50;;;;;;;9.27;7.15;;;;;;;18.06;100.00;101412.53;5295900;28;20361;-67
2022/09/06 05:23:22;;;;;;;7.65;6.57;;;;;;;17.90;100.00;101415.19;5295706;28;20042;-67
2022/09/06 05:25:53;;;;;;;8.57;6.70;;;;;;;17.83;100.00;101398.28;5297801;28;20023;-67
2022/09/06 05:28:25;;;;;;;7.10;6.47;;;;;;;17.88;100.00;101422.47;5298115;28;20144;-67
2022/09/06 05:31:23;;;;;;;8.20;7.00;;;;;;;18.08;100.00;101413.22;5295916;28;20024;-67
2022/09/06 05:33:56;;;;;;;8.32;6.65;;;;;;;17.89;100.00;101419.66;5296708;28;21280;-67
2022/09/06 05:36:29;;;;;;;7.50;6.80;;;;;;;17.92;100.00;101418.53;5296118;28;20446;-67
2022/09/06 05:39:00;;;;;;;8.23;7.20;;;;;;;17.92;100.00;101429.94;5293998;28;20392;-67
2022/09/06 05:41:32;;;;;;;8.55;7.78;;;;;;;17.99;100.00;101428.31;5292306;28;20024;-67
2022/09/06 05:44:03;;;;;;;8.85;7.38;;;;;;;18.01;100.00;101425.47;5296574;28;20032;-67
2022/09/06 05:46:41;;;;;;;8.40;7.50;;;;;;;18.14;100.00;101428.44;5297235;28;20028;-67
2022/09/06 05:49:12;;;;;;;8.63;6.85;;;;;;;18.04;100.00;101432.28;5296750;28;20058;-67
2022/09/06 05:51:43;;;;;;;8.88;7.35;;;;;;;18.14;100.00;101431.09;5294483;28;20110;-67
2022/09/06 05:54:15;;;;;;;7.78;6.97;;;;;;;18.15;100.00;101426.66;5297354;28;20026;-67
2022/09/06 05:56:46;;;;;;;7.32;6.63;;;;;;;18.20;100.00;101426.97;5297071;28;20113;-66
2022/09/06 05:59:17;;;;;;;8.43;7.25;;;;;;;18.26;100.00;101428.97;5292003;28;20043;-67
2022/09/06 06:01:51;;;;;;;8.73;7.15;;;;;;;18.27;100.00;101424.50;5295614;28;20115;-67
2022/09/06 06:04:22;;;;;;;7.68;6.82;;;;;;;18.26;100.00;101422.81;5293116;28;20024;-67
2022/09/06 06:06:54;;;;;;;7.88;6.75;;;;;;;18.28;100.00;101431.44;5296981;28;20032;-68
2022/09/06 06:09:25;;;;;;;9.18;6.93;;;;;;;18.33;100.00;101427.28;5297429;28;20492;-67
2022/09/06 06:11:56;;;;;;;7.53;6.53;;;;;;;18.41;100.00;101418.50;5284393;28;20112;-67
2022/09/06 06:14:27;;;;;;;8.25;7.32;;;;;;;18.40;100.00;101422.16;5292335;28;20043;-67
2022/09/06 06:16:59;;;;;;;7.80;6.90;;;;;;;18.42;100.00;101423.66;5296914;28;20466;-67
2022/09/06 06:19:30;;;;;;;7.55;6.82;;;;;;;18.48;100.00;101427.44;5294400;28;20032;-67
2022/09/06 06:22:01;;;;;;;11.63;6.53;;;;;;;18.54;100.00;101432.09;5291574;28;20099;-67
2022/09/06 06:24:33;;;;;;;7.82;6.57;;;;;;;18.57;100.00;101428.28;5293140;28;20028;-67
2022/09/06 06:27:04;;;;;;;7.40;6.70;;;;;;;18.60;100.00;101420.81;5284538;28;20029;-67
2022/09/06 06:29:35;;;;;;;7.40;6.63;;;;;;;18.66;100.00;101425.44;5284395;28;20040;-67
2022/09/06 06:32:06;;;;;;;8.20;6.40;;;;;;;18.71;100.00;101409.88;5292825;28;20055;-67
2022/09/06 06:34:38;;;;;;;6.78;6.07;;;;;;;18.80;100.00;101413.34;5292818;28;20065;-67
2022/09/06 06:37:09;;;;;;;6.60;6.00;;;;;;;18.87;100.00;101416.16;5294382;28;20028;-67
2022/09/06 06:39:40;;;;;;;6.93;6.18;;;;;;;18.95;100.00;101416.94;5293544;28;20063;-67
2022/09/06 06:42:11;;;;;;;6.32;5.65;;;;;;;19.05;100.00;101415.91;5293368;28;20061;-67
2022/09/06 06:44:43;;;;;;;8.17;5.30;;;;;;;19.12;100.00;101406.25;5293672;28;20107;-67
2022/09/06 06:47:14;;;;;;;5.93;5.32;;;;;;;19.15;100.00;101406.72;5294569;28;20028;-67
2022/09/06 06:49:47;;;;;;;5.73;5.13;;;;;;;19.26;100.00;101410.84;5296220;28;20024;-67
2022/09/06 06:52:20;;;;;;;7.40;5.22;;;;;;;19.34;100.00;101412.63;5293691;28;20036;-67
2022/09/06 06:54:51;;;;;;;;;;;;;;;19.92;100.00;101414.78;5295335;28;20024;-67
2022/09/06 06:57:23;;;;;;;6.17;4.80;;;;;;;19.56;100.00;101411.84;5295263;28;20650;-67
2022/09/06 06:59:54;;;;;;;7.93;5.63;;;;;;;19.64;100.00;101408.34;5287360;28;20047;-67
2022/09/06 07:02:25;;;;;;;6.90;4.70;;;;;;;19.85;100.00;101405.03;5289846;28;20032;-67
2022/09/06 07:04:56;;;;;;;4.90;4.37;;;;;;;19.83;100.00;101405.22;5292844;28;20016;-67
2022/09/06 07:07:28;;;;;;;5.20;4.43;;;;;;;19.91;100.00;101405.16;5295261;28;20028;-67
2022/09/06 07:09:59;;;;;;;4.97;4.43;;;;;;;20.01;100.00;101398.78;5292088;28;20024;-67
2022/09/06 07:12:30;;;;;;;8.77;4.37;;;;;;;20.18;100.00;101395.78;5296370;28;20032;-67
2022/09/06 07:15:02;;;;;;;7.73;4.53;;;;;;;20.25;100.00;101397.75;5299175;28;20663;-67
2022/09/06 07:17:34;;;;;;;7.17;4.40;;;;;;;20.33;100.00;101406.47;5294799;28;20031;-67
2022/09/06 07:20:06;;;;;;;5.18;4.13;;;;;;;20.45;100.00;101403.38;5290700;28;20063;-68
2022/09/06 07:22:39;;;;;;;6.83;4.20;;;;;;;20.54;100.00;101405.81;5294807;28;20120;-68
2022/09/06 07:25:11;;;;;;;5.43;3.80;;;;;;;20.63;100.00;101412.69;5299473;28;20055;-67
2022/09/06 07:27:43;;;;;;;;;;;;;;;21.20;100.00;101407.72;5297821;28;20028;-68
2022/09/06 07:30:14;;;;;;;6.00;3.58;;;;;;;20.91;100.00;101414.75;5295168;28;19919;-68
2022/09/06 07:32:46;;;;;;;4.97;3.30;;;;;;;21.00;100.00;101410.13;5295536;28;21226;-68
2022/09/06 07:35:19;;;;;;;4.40;3.23;;;;;;;21.02;100.00;101400.94;5296593;28;20397;-68
2022/09/06 07:37:51;;;;;;;5.72;3.03;;;;;;;21.13;100.00;101400.47;5292911;28;20472;-67
2022/09/06 07:40:28;;;;;;;6.47;3.20;;;;;;;21.31;100.00;101416.06;5296139;28;20436;-67
2022/09/06 07:42:59;;;;;;;6.07;3.00;;;;;;;21.39;100.00;101415.16;5296256;28;20469;-68
2022/09/06 07:45:30;;;;;;;4.23;2.87;;;;;;;21.42;100.00;101401.47;5298741;28;20031;-68
2022/09/06 07:48:01;;;;;;;4.27;3.07;;;;;;;21.54;100.00;101417.78;5298939;28;20028;-68
2022/09/06 07:50:33;;;;;;;6.67;3.27;;;;;;;21.73;100.00;101413.69;5292521;28;20032;-68
2022/09/06 07:53:05;;;;;;;7.33;3.03;;;;;;;21.93;100.00;101408.53;5296506;28;20027;-68
2022/09/06 07:55:37;;;;;;;;;;;;;;;22.43;100.00;101402.22;5298808;28;20366;-68
2022/09/06 07:58:08;;;;;;;3.20;2.30;;;;;;;22.08;100.00;101404.75;5295159;28;19923;-68
2022/09/06 08:00:39;;;;;;;3.60;2.30;;;;;;;22.14;100.00;101397.88;5324913;22;21201;-69
2022/09/06 08:03:11;;;;;;;3.67;2.37;;;;;;;22.18;100.00;101393.81;5246859;28;20083;-69
2022/09/06 08:05:43;;;;;;;3.00;2.10;;;;;;;22.36;100.00;101390.66;5247681;28;20028;-69
2022/09/06 08:08:14;;;;;;;2.53;2.10;;;;;;;22.47;100.00;101398.13;5254164;28;20535;-69
2022/09/06 08:10:49;;;;;;;3.73;2.30;;;;;;;22.56;100.00;101402.28;5254785;28;20543;-69
2022/09/06 08:13:20;;;;;;;4.20;2.33;;;;;;;22.46;100.00;101396.47;5274256;28;20576;-70
2022/09/06 08:16:03;;;;;;;6.47;2.70;;;;;;;22.54;100.00;101403.50;5274715;28;20111;-69
2022/09/06 08:18:35;;;;;;;3.28;1.88;;;;;;;22.39;100.00;101400.09;5275314;28;20030;-69
2022/09/06 08:21:14;;;;;;;3.70;2.25;;;;;;;22.55;100.00;101400.66;5272953;28;20017;-69
2022/09/06 08:23:48;;;;;;;3.15;1.67;;;;;;;22.42;100.00;101397.06;5273550;28;20032;-69
2022/09/06 08:26:22;;;;;;;3.67;1.92;;;;;;;22.41;100.00;101412.25;5276119;28;20098;-70
2022/09/06 08:28:56;;;;;;;4.88;2.38;;;;;;;22.41;100.00;101408.75;5254583;28;20047;-70
2022/09/06 08:31:29;;;;;;;4.40;2.05;;;;;;;22.51;100.00;101425.28;5273261;28;20112;-69
2022/09/06 08:34:02;;;;;;;3.75;1.73;;;;;;;22.78;100.00;101420.94;5275179;28;20037;-70
2022/09/06 08:36:34;;;;;;;4.20;2.40;;;;;;;22.90;100.00;101411.34;5258807;28;20064;-70
2022/09/06 08:39:10;;;;;;;4.07;2.00;;;;;;;23.07;100.00;101401.19;5275441;28;20466;-70
2022/09/06 08:41:57;;;;;;;5.40;2.40;;;;;;;23.27;100.00;101414.63;5276962;28;20027;-70
2022/09/06 08:44:49;;;;;;;2.78;1.80;;;;;;;23.49;100.00;101408.13;5278292;28;20392;-70
2022/09/06 08:47:20;;;;;;;5.75;2.80;;;;;;;23.47;100.00;101412.81;5274999;28;20036;-70
2022/09/06 08:50:05;;;;;;;5.82;2.58;;;;;;;23.79;100.00;101405.13;5276260;28;20051;-70
2022/09/06 08:52:59;;;;;;;3.13;1.98;;;;;;;23.70;100.00;101412.50;5277666;28;20028;-69
2022/09/06 08:55:49;;;;;;;3.20;1.80;;;;;;;24.03;100.00;101404.53;5276273;28;20477;-70
2022/09/06 08:58:39;;;;;;;5.18;2.00;;;;;;;24.16;100.00;101405.53;5277562;28;20051;-69
2022/09/06 09:01:17;;;;;;;4.40;2.45;;;;;;;24.21;100.00;101398.56;5274468;28;20526;-70
2022/09/06 09:03:51;;;;;;;3.30;2.13;;;;;;;24.27;100.00;101407.59;5277839;28;20382;-70
2022/09/06 09:06:24;;;;;;;3.95;2.17;;;;;;;24.27;100.00;101410.28;5275191;28;20100;-69
2022/09/06 09:09:05;;;;;;;6.10;2.28;;;;;;;24.52;100.00;101410.50;5277560;28;20492;-70
2022/09/06 09:11:41;;;;;;;2.55;1.90;;;;;;;24.55;100.00;101393.16;5277007;28;20036;-70
2022/09/06 09:14:28;;;;;;;5.35;2.20;;;;;;;24.82;100.00;101394.78;5276725;28;20024;-70
2022/09/06 09:17:05;;;;;;;2.95;1.77;;;;;;;24.94;100.00;101384.22;5273338;28;20081;-70
2022/09/06 09:19:39;;;;;;;3.65;1.92;;;;;;;24.95;100.00;101375.94;5277033;28;20020;-70
2022/09/06 09:22:14;;;;;;;4.80;2.25;;;;;;;25.04;100.00;101389.94;5272380;28;20028;-70
2022/09/06 09:24:50;;;;;;;5.20;2.17;;;;;;;25.16;100.00;101392.81;5274491;28;20075;-70
2022/09/06 09:27:25;;;;;;;2.75;1.80;;;;;;;25.24;100.00;101381.84;5275472;28;20025;-70
2022/09/06 09:30:03;;;;;;;3.00;2.03;;;;;;;25.38;100.00;101393.31;5274992;28;20020;-70
2022/09/06 09:32:34;;;;;;;4.25;1.90;;;;;;;25.46;100.00;101395.75;5274419;28;20108;-70
2022/09/06 09:35:35;;;;;;;4.93;2.13;;;;;;;25.72;100.00;101397.44;5276966;28;20115;-70
2022/09/06 09:38:12;;;;;;;4.32;1.83;;;;;;;25.69;100.00;101395.19;5273236;28;20024;-70
2022/09/06 09:41:02;;;;;;;2.85;2.00;;;;;;;25.87;100.00;101400.66;5274102;28;20070;-70
2022/09/06 09:43:38;;;;;;;5.70;1.95;;;;;;;25.92;100.00;101394.66;5275497;28;20081;-70
2022/09/06 09:46:12;;;;;;;4.05;2.22;;;;;;;25.93;100.00;101386.38;5274905;28;20033;-70
2022/09/06 09:49:08;;;;;;;5.07;1.98;;;;;;;26.27;100.00;101389.59;5271926;28;20400;-70
2022/09/06 09:52:18;;;;;;;4.15;2.03;;;;;;;26.44;100.00;101384.47;5275667;28;20098;-70
2022/09/06 09:54:52;;;;;;;3.30;2.15;;;;;;;26.32;100.00;101383.56;5275082;28;20127;-71
2022/09/06 09:57:24;;;;;;;4.18;2.10;;;;;;;26.21;100.00;101385.09;5275893;28;20067;-71
2022/09/06 10:00:01;;;;;;;3.93;2.37;;;;;;;26.46;100.00;101379.72;5276247;28;20517;-71
2022/09/06 10:02:37;;;;;;;3.13;2.13;;;;;;;26.53;100.00;101380.50;5265560;28;20039;-71
2022/09/06 10:05:12;;;;;;;4.70;2.28;;;;;;;26.60;100.00;101388.50;5271980;28;20039;-71
2022/09/06 10:07:57;;;;;;;3.65;2.30;;;;;;;26.76;100.00;101403.19;5274323;28;20040;-71
2022/09/06 10:10:34;;;;;;;4.55;2.42;;;;;;;26.74;100.00;101406.09;5275973;28;20024;-71
2022/09/06 10:13:16;;;;;;;3.75;2.42;;;;;;;26.87;100.00;101405.97;5275871;28;20039;-71
2022/09/06 10:15:50;;;;;;;4.72;2.50;;;;;;;26.88;100.00;101404.91;5275535;28;20485;-71
2022/09/06 10:18:31;;;;;;;7.15;2.47;;;;;;;27.21;100.00;101403.72;5276851;28;20044;-70
2022/09/06 10:21:11;;;;;;;3.30;2.10;;;;;;;27.13;100.00;101402.16;5273933;28;20381;-70
2022/09/06 10:24:18;;;;;;;4.82;2.47;;;;;;;27.23;100.00;101420.44;5274903;28;20037;-71
2022/09/06 10:26:54;;;;;;;4.30;3.08;;;;;;;27.10;100.00;101407.13;5276055;28;20049;-71
2022/09/06 10:29:51;;;;;;;4.53;2.85;;;;;;;27.26;100.00;101406.53;5274962;28;20028;-71
2022/09/06 10:32:35;;;;;;;6.85;2.88;;;;;;;27.35;100.00;101407.88;5273751;28;20029;-71
2022/09/06 10:35:08;;;;;;;5.43;3.03;;;;;;;27.23;100.00;101403.47;5275835;28;20031;-71
2022/09/06 10:38:02;;;;;;;3.55;2.85;;;;;;;27.35;100.00;101399.81;5272531;28;20409;-71
2022/09/06 10:40:46;;;;;;;8.35;2.97;;;;;;;27.57;100.00;101396.59;5274411;28;20338;-71
2022/09/06 10:43:18;;;;;;;4.45;2.92;;;;;;;27.54;100.00;101397.03;5276259;28;20104;-71
2022/09/06 10:45:58;;;;;;;6.63;2.95;;;;;;;27.67;100.00;101394.16;5276512;28;20324;-71
2022/09/06 10:48:34;;;;;;;4.75;2.90;;;;;;;27.33;100.00;101393.81;5278167;28;20040;-71
2022/09/06 10:51:11;;;;;;;6.95;3.03;;;;;;;27.47;100.00;101399.03;5279501;28;20074;-71
2022/09/06 10:53:45;;;;;;;4.10;2.90;;;;;;;27.70;100.00;101399.09;5259430;28;20059;-70
2022/09/06 10:56:25;;;;;;;6.38;3.08;;;;;;;27.54;100.00;101397.88;5278331;28;20073;-71
2022/09/06 10:59:17;;;;;;;6.20;2.80;;;;;;;27.77;100.00;101393.63;5277705;28;20028;-71
2022/09/06 11:02:16;;;;;;;5.43;3.20;;;;;;;28.10;100.00;101401.16;5277994;28;20502;-71
2022/09/06 11:04:49;;;;;;;6.32;2.70;;;;;;;28.25;100.00;101398.00;5275121;28;20392;-71
2022/09/06 11:07:29;;;;;;;6.20;3.28;;;;;;;28.25;100.00;101393.44;5278695;28;20036;-70
2022/09/06 11:10:21;;;;;;;4.95;2.65;;;;;;;28.36;100.00;101400.69;5276785;28;20029;-71
2022/09/06 11:13:08;;;;;;;7.07;3.20;;;;;;;28.34;99.92;101404.72;5278844;28;20043;-71
2022/09/06 11:15:54;;;;;;;5.53;2.90;;;;;;;28.51;98.85;101412.91;5276611;28;20056;-71
2022/09/06 11:18:35;;;;;;;4.75;2.80;;;;;;;28.49;98.98;101412.31;5278301;28;20037;-71
2022/09/06 11:21:44;;;;;;;5.63;2.80;;;;;;;28.88;94.46;101415.34;5278427;28;20555;-71
2022/09/06 11:24:39;;;;;;;3.95;2.75;;;;;;;28.80;96.34;101419.22;5278813;28;20067;-71
2022/09/06 11:27:20;;;;;;;4.88;2.20;;;;;;;28.83;92.46;101422.25;5275785;28;20102;-71
2022/09/06 11:29:55;;;;;;;8.18;3.22;;;;;;;28.51;91.73;101419.13;5277960;28;20024;-71
2022/09/06 11:32:39;;;;;;;4.57;3.00;;;;;;;28.46;93.15;101410.94;5277812;28;20397;-71
2022/09/06 11:35:25;;;;;;;5.10;2.50;;;;;;;28.72;90.08;101416.91;5277152;28;20375;-71
2022/09/06 11:38:14;;;;;;;5.95;2.50;;;;;;;28.84;92.37;101418.50;5277883;28;20028;-71
2022/09/06 11:40:57;;;;;;;5.53;2.75;;;;;;;28.81;91.83;101413.56;5279062;28;20047;-71
2022/09/06 11:43:45;;;;;;;;;;;;;;;29.57;79.59;101413.47;5275671;28;20456;-71
2022/09/06 11:46:32;;;;;;;5.35;2.63;;;;;;;29.23;80.12;101401.75;5278792;28;19930;-71
2022/09/06 11:49:13;;;;;;;5.60;2.35;;;;;;;29.04;79.98;101406.53;5266422;28;20472;-71
2022/09/06 11:51:45;;;;;;;5.07;2.60;;;;;;;29.04;79.00;101396.53;5278531;28;20031;-71
2022/09/06 11:54:16;;;;;;;6.82;2.72;;;;;;;29.19;78.13;101408.69;5275973;28;20024;-71
2022/09/06 11:57:01;;;;;;;4.97;3.30;;;;;;;29.33;77.56;101400.06;5278922;28;20128;-71
2022/09/06 11:59:40;;;;;;;7.72;3.42;;;;;;;29.06;77.04;101401.72;5273309;28;20048;-71